createdAt,value
2023-01-25T00:00:47.628Z,4.78
2023-01-25T00:03:33.175Z,5.20
2023-01-25T00:06:18.599Z,4.80
2023-01-25T00:09:04.877Z,4.50
2023-01-25T00:11:50.552Z,4.63
2023-01-25T00:14:35.628Z,4.93
2023-01-25T00:17:21.034Z,4.63
2023-01-25T00:20:06.905Z,4.70
2023-01-25T00:22:52.075Z,4.88
2023-01-25T00:25:37.409Z,4.60
2023-01-25T00:28:22.700Z,4.57
2023-01-25T00:31:46.523Z,4.22
2023-01-25T00:34:51.501Z,5.03
2023-01-25T00:37:40.001Z,4.70
2023-01-25T00:40:25.255Z,4.30
2023-01-25T00:43:10.209Z,4.32
2023-01-25T00:46:01.363Z,4.38
2023-01-25T00:48:46.591Z,4.45
2023-01-25T00:51:32.242Z,4.30
2023-01-25T00:54:18.549Z,4.60
2023-01-25T00:57:04.279Z,4.50
2023-01-25T00:59:50.349Z,4.30
2023-01-25T01:45:34.432Z,4.10
2023-01-25T01:48:31.317Z,4.28
2023-01-25T01:51:19.886Z,4.10
2023-01-25T01:54:08.760Z,3.85
2023-01-25T01:57:00.244Z,4.53
2023-01-25T01:59:55.942Z,4.22
2023-01-25T02:50:05.062Z,3.80
2023-01-25T02:52:51.420Z,3.90
2023-01-25T02:55:37.103Z,3.90
2023-01-25T02:58:22.384Z,3.73
2023-01-25T03:47:05.098Z,3.90
2023-01-25T03:49:51.387Z,3.50
2023-01-25T03:52:42.013Z,3.50
2023-01-25T03:55:27.391Z,3.25
2023-01-25T03:58:12.728Z,3.45
2023-01-25T04:46:35.773Z,2.93
2023-01-25T04:49:21.658Z,3.35
2023-01-25T04:52:07.049Z,3.58
2023-01-25T04:54:52.796Z,2.95
2023-01-25T04:57:38.163Z,3.60
2023-01-25T05:46:21.076Z,3.05
2023-01-25T05:49:06.587Z,3.10
2023-01-25T05:51:52.385Z,3.35
2023-01-25T05:54:38.772Z,3.33
2023-01-25T05:57:24.549Z,3.10
2023-01-25T06:00:10.929Z,3.05
2023-01-25T06:03:01.974Z,2.87
2023-01-25T06:05:55.192Z,3.10
2023-01-25T06:08:41.155Z,3.10
2023-01-25T06:11:26.862Z,2.83
2023-01-25T06:14:13.921Z,3.00
2023-01-25T06:16:59.561Z,2.87
2023-01-25T06:20:01.355Z,3.03
2023-01-25T06:22:56.796Z,3.05
2023-01-25T06:25:42.487Z,2.83
2023-01-25T06:28:32.849Z,2.83
2023-01-25T06:31:18.899Z,3.10
2023-01-25T06:34:06.450Z,3.00
2023-01-25T06:36:52.336Z,2.97
2023-01-25T06:39:37.568Z,3.05
2023-01-25T06:42:26.074Z,2.95
2023-01-25T06:45:12.213Z,3.00
2023-01-25T06:47:57.620Z,3.03
2023-01-25T06:50:42.931Z,2.80
2023-01-25T06:53:30.319Z,2.67
2023-01-25T06:56:22.077Z,3.05
2023-01-25T06:59:07.575Z,3.00
2023-01-25T07:01:53.429Z,3.05
2023-01-25T07:04:38.547Z,3.00
2023-01-25T07:07:23.894Z,3.30
2023-01-25T07:10:09.737Z,3.20
2023-01-25T07:12:54.944Z,2.60
2023-01-25T07:15:40.305Z,2.75
2023-01-25T07:18:19.321Z,2.63
2023-01-25T07:21:07.015Z,2.80
2023-01-25T07:23:53.004Z,2.70
2023-01-25T07:26:38.380Z,3.00
2023-01-25T07:29:24.052Z,2.80
2023-01-25T07:32:12.376Z,3.28
2023-01-25T07:34:57.406Z,2.72
2023-01-25T07:37:42.685Z,2.83
2023-01-25T07:40:27.917Z,2.90
2023-01-25T07:43:13.286Z,2.78
2023-01-25T07:46:02.121Z,2.70
2023-01-25T07:48:49.332Z,2.67
2023-01-25T07:51:34.902Z,2.55
2023-01-25T07:54:20.128Z,2.80
2023-01-25T07:57:05.128Z,2.47
2023-01-25T07:59:50.429Z,2.80
2023-01-25T08:02:36.098Z,2.53
2023-01-25T08:05:21.258Z,2.83
2023-01-25T08:08:06.536Z,2.67
2023-01-25T08:10:52.207Z,2.92
2023-01-25T08:13:37.497Z,2.55
2023-01-25T08:16:27.842Z,3.03
2023-01-25T08:19:13.195Z,2.80
2023-01-25T08:21:58.556Z,2.83
2023-01-25T08:24:43.935Z,2.60
2023-01-25T08:27:29.316Z,2.42
2023-01-25T08:30:14.907Z,3.08
2023-01-25T08:33:00.057Z,2.78
2023-01-25T08:35:56.009Z,2.43
2023-01-25T08:38:41.535Z,2.90
2023-01-25T08:41:28.649Z,2.58
2023-01-25T08:44:13.960Z,2.55
2023-01-25T08:46:59.346Z,2.60
2023-01-25T08:49:44.575Z,2.70
2023-01-25T08:52:29.887Z,2.50
2023-01-25T08:55:14.994Z,2.78
2023-01-25T08:58:00.123Z,2.20
2023-01-25T09:00:45.659Z,2.60
2023-01-25T09:03:31.776Z,2.43
2023-01-25T09:06:19.932Z,2.78
2023-01-25T09:09:05.181Z,2.70
2023-01-25T09:11:50.583Z,2.53
2023-01-25T09:14:37.692Z,2.40
2023-01-25T09:17:23.074Z,2.57
2023-01-25T09:20:09.423Z,2.55
2023-01-25T09:22:58.496Z,2.65
2023-01-25T09:25:43.584Z,2.35
2023-01-25T09:28:30.400Z,2.80
2023-01-25T09:31:22.453Z,2.50
2023-01-25T09:34:24.849Z,2.42
2023-01-25T09:37:09.775Z,2.83
2023-01-25T09:39:55.059Z,3.03
2023-01-25T09:42:56.541Z,2.50
2023-01-25T09:45:42.754Z,2.63
2023-01-25T09:49:07.390Z,2.53
2023-01-25T09:52:08.220Z,2.50
2023-01-25T09:54:53.527Z,2.35
2023-01-25T09:57:41.215Z,2.58
2023-01-25T10:00:38.440Z,2.50
2023-01-25T10:03:32.321Z,2.80
2023-01-25T10:06:20.572Z,2.38
2023-01-25T10:09:17.434Z,2.47
2023-01-25T10:12:20.542Z,2.30
2023-01-25T10:15:23.829Z,2.80
2023-01-25T10:18:37.105Z,2.63
2023-01-25T10:21:35.378Z,2.25
2023-01-25T10:24:33.357Z,2.63
2023-01-25T10:27:24.712Z,2.60
2023-01-25T10:30:29.048Z,2.53
2023-01-25T10:33:18.706Z,2.80
2023-01-25T10:36:05.273Z,2.40
2023-01-25T10:38:52.083Z,2.50
2023-01-25T10:41:49.009Z,2.90
2023-01-25T10:44:35.811Z,2.53
2023-01-25T10:47:29.292Z,2.75
2023-01-25T10:50:43.897Z,2.90
2023-01-25T10:53:35.714Z,2.60
2023-01-25T10:56:27.317Z,2.75
2023-01-25T10:59:20.166Z,2.60
2023-01-25T11:02:44.098Z,3.03
2023-01-25T11:05:37.811Z,2.92
2023-01-25T11:08:31.951Z,3.40
2023-01-25T11:11:45.708Z,2.80
2023-01-25T11:14:33.142Z,3.00
2023-01-25T11:17:26.176Z,2.80
2023-01-25T11:20:18.878Z,2.63
2023-01-25T11:23:04.289Z,2.55
2023-01-25T11:25:49.957Z,2.70
2023-01-25T11:28:35.373Z,2.70
2023-01-25T11:31:22.336Z,2.85
2023-01-25T11:34:16.245Z,2.58
2023-01-25T11:37:23.038Z,2.65
2023-01-25T11:40:51.596Z,2.90
2023-01-25T11:44:10.206Z,2.53
2023-01-25T11:47:30.665Z,2.50
2023-01-25T11:50:36.145Z,3.13
2023-01-25T11:53:39.420Z,2.78
2023-01-25T11:56:30.836Z,2.80
2023-01-25T11:59:53.204Z,2.33
2023-01-25T12:02:48.420Z,2.75
2023-01-25T12:06:02.185Z,2.40
2023-01-25T12:09:06.507Z,2.65
2023-01-25T12:12:35.534Z,2.88
2023-01-25T12:15:51.498Z,2.77
2023-01-25T12:18:55.378Z,2.92
2023-01-25T12:21:55.653Z,2.80
2023-01-25T12:24:49.892Z,2.47
2023-01-25T12:27:57.559Z,2.65
2023-01-25T12:30:53.819Z,2.63
2023-01-25T12:34:05.376Z,2.60
2023-01-25T12:36:51.447Z,2.33
2023-01-25T12:39:45.886Z,2.58
2023-01-25T12:42:46.179Z,2.90
2023-01-25T12:45:37.735Z,2.80
2023-01-25T12:48:32.372Z,2.70
2023-01-25T12:51:20.271Z,2.63
2023-01-25T12:54:31.312Z,2.80
2023-01-25T12:57:39.583Z,2.50
2023-01-25T13:00:58.724Z,2.90
2023-01-25T13:04:06.327Z,2.70
2023-01-25T13:06:51.345Z,2.80
2023-01-25T13:09:42.587Z,2.63
2023-01-25T13:12:27.690Z,2.72
2023-01-25T13:15:35.094Z,2.90
2023-01-25T13:18:30.948Z,2.58
2023-01-25T13:21:36.490Z,2.95
2023-01-25T13:24:32.959Z,2.70
2023-01-25T13:27:27.241Z,3.50
2023-01-25T13:30:32.239Z,3.33
2023-01-25T13:33:34.045Z,3.50
2023-01-25T13:36:42.465Z,2.75
2023-01-25T13:39:27.521Z,2.92
2023-01-25T13:42:12.453Z,3.13
2023-01-25T13:45:20.065Z,2.83
2023-01-25T13:48:11.478Z,3.17
2023-01-25T13:51:05.534Z,3.45
2023-01-25T13:53:56.476Z,3.03
2023-01-25T13:56:41.795Z,2.88
2023-01-25T13:59:28.288Z,3.00
2023-01-25T14:02:21.117Z,3.70
2023-01-25T14:05:17.952Z,3.20
2023-01-25T14:08:03.675Z,3.05
2023-01-25T14:10:50.393Z,3.22
2023-01-25T14:13:35.867Z,2.93
2023-01-25T14:16:20.964Z,3.05
2023-01-25T14:19:39.548Z,3.00
2023-01-25T14:22:26.899Z,2.88
2023-01-25T14:25:17.282Z,3.40
2023-01-25T14:28:06.820Z,2.90
2023-01-25T14:30:57.406Z,3.20
2023-01-25T14:33:47.745Z,3.08
2023-01-25T14:36:34.745Z,3.10
2023-01-25T14:39:28.470Z,3.20
2023-01-25T14:42:15.639Z,3.23
2023-01-25T14:45:00.732Z,3.22
2023-01-25T14:47:58.329Z,3.00
2023-01-25T14:50:44.576Z,2.67
2023-01-25T14:53:30.876Z,2.88
2023-01-25T14:56:33.037Z,2.90
2023-01-25T14:59:29.919Z,2.85
2023-01-25T15:02:18.147Z,3.10
2023-01-25T15:05:20.704Z,2.95
2023-01-25T15:08:08.695Z,3.08
2023-01-25T15:10:56.231Z,2.30
2023-01-25T15:13:41.567Z,2.90
2023-01-25T15:16:36.560Z,2.85
2023-01-25T15:19:23.842Z,2.80
2023-01-25T15:22:08.968Z,2.70
2023-01-25T15:24:58.547Z,2.80
2023-01-25T15:27:44.388Z,2.80
2023-01-25T15:30:29.618Z,2.85
2023-01-25T15:33:27.621Z,2.97
2023-01-25T15:36:14.700Z,2.90
2023-01-25T15:39:00.262Z,2.83
2023-01-25T15:41:46.133Z,3.33
2023-01-25T15:44:31.367Z,2.78
2023-01-25T15:47:16.936Z,3.05
2023-01-25T15:50:02.932Z,2.80
2023-01-25T15:52:48.237Z,2.77
2023-01-25T15:55:34.217Z,2.53
2023-01-25T15:58:29.275Z,2.85
2023-01-25T16:01:14.459Z,2.83
2023-01-25T16:04:00.574Z,3.30
2023-01-25T16:06:54.077Z,2.53
2023-01-25T16:09:39.041Z,3.20
2023-01-25T16:12:25.716Z,2.65
2023-01-25T16:15:11.544Z,2.90
2023-01-25T16:17:57.081Z,2.92
2023-01-25T16:20:43.629Z,2.63
2023-01-25T16:23:29.286Z,3.00
2023-01-25T16:26:22.215Z,2.75
2023-01-25T16:29:07.807Z,2.80
2023-01-25T16:31:54.788Z,3.00
2023-01-25T16:34:40.095Z,2.67
2023-01-25T16:37:25.679Z,2.78
2023-01-25T16:40:30.130Z,3.08
2023-01-25T16:43:15.615Z,3.00
2023-01-25T16:46:00.977Z,3.00
2023-01-25T16:48:47.836Z,2.80
2023-01-25T16:51:33.529Z,2.65
2023-01-25T16:54:21.238Z,2.60
2023-01-25T16:57:19.915Z,2.78
2023-01-25T17:00:11.236Z,2.75
2023-01-25T17:02:59.725Z,2.60
2023-01-25T17:05:45.522Z,2.60
2023-01-25T17:08:31.429Z,2.40
2023-01-25T17:11:21.987Z,2.90
2023-01-25T17:14:08.245Z,2.50
2023-01-25T17:16:54.038Z,2.63
2023-01-25T17:19:39.261Z,2.72
2023-01-25T17:22:24.879Z,2.25
2023-01-25T17:25:10.370Z,2.63
2023-01-25T17:27:55.609Z,2.80
2023-01-25T17:30:41.318Z,2.70
2023-01-25T17:33:27.867Z,2.30
2023-01-25T17:36:15.056Z,2.28
2023-01-25T17:39:05.971Z,2.78
2023-01-25T17:41:52.034Z,2.50
2023-01-25T17:44:37.407Z,2.30
2023-01-25T17:47:23.061Z,2.40
2023-01-25T17:50:09.355Z,2.33
2023-01-25T17:52:54.783Z,2.63
2023-01-25T17:55:40.083Z,2.92
2023-01-25T17:58:25.420Z,3.60
2023-01-25T18:01:14.404Z,3.38
2023-01-25T18:04:00.834Z,3.78
2023-01-25T18:06:46.380Z,3.42
2023-01-25T18:09:33.612Z,3.30
2023-01-25T18:12:20.546Z,3.00
2023-01-25T18:15:06.744Z,3.50
2023-01-25T18:17:52.687Z,3.58
2023-01-25T18:20:37.845Z,3.58
2023-01-25T18:23:23.587Z,3.50
2023-01-25T18:26:18.300Z,3.57
2023-01-25T18:29:10.043Z,3.55
2023-01-25T18:31:56.268Z,3.50
2023-01-25T18:34:43.125Z,3.97
2023-01-25T18:37:33.464Z,3.38
2023-01-25T18:40:19.968Z,3.43
2023-01-25T18:43:05.566Z,3.13
2023-01-25T18:45:56.131Z,3.13
2023-01-25T18:48:43.593Z,3.15
2023-01-25T18:51:29.568Z,3.50
2023-01-25T18:54:15.251Z,2.80
2023-01-25T18:57:00.629Z,3.55
2023-01-25T18:59:46.293Z,3.08
2023-01-25T19:02:31.976Z,3.17
2023-01-25T19:05:20.176Z,3.50
2023-01-25T19:08:05.992Z,3.17
2023-01-25T19:11:01.116Z,3.63
2023-01-25T19:13:46.566Z,3.15
2023-01-25T19:16:32.116Z,3.10
2023-01-25T19:19:18.119Z,3.38
2023-01-25T19:22:05.144Z,3.10
2023-01-25T19:24:52.939Z,3.00
2023-01-25T19:27:38.521Z,2.80
2023-01-25T19:30:24.126Z,2.92
2023-01-25T19:33:11.318Z,3.35
2023-01-25T19:36:01.088Z,2.97
2023-01-25T19:38:48.122Z,3.00
2023-01-25T19:41:34.433Z,2.92
2023-01-25T19:44:20.865Z,3.22
2023-01-25T19:47:06.610Z,3.45
2023-01-25T19:49:52.453Z,2.87
2023-01-25T19:52:38.532Z,3.45
2023-01-25T19:55:24.228Z,3.15
2023-01-25T19:58:09.913Z,3.20
2023-01-25T20:00:56.141Z,2.80
2023-01-25T20:03:42.186Z,3.23
2023-01-25T20:06:28.866Z,3.20
2023-01-25T20:09:17.274Z,3.53
2023-01-25T20:12:05.827Z,3.15
2023-01-25T20:14:50.841Z,2.83
2023-01-25T20:17:36.680Z,2.70
2023-01-25T20:20:21.800Z,3.05
2023-01-25T20:23:07.109Z,2.97
2023-01-25T20:26:13.905Z,2.70
2023-01-25T20:28:59.952Z,3.10
2023-01-25T20:31:46.372Z,2.87
2023-01-25T20:34:31.758Z,3.03
2023-01-25T20:37:16.916Z,2.97
2023-01-25T20:40:02.278Z,3.20
2023-01-25T20:42:47.470Z,2.60
2023-01-25T20:45:34.839Z,2.77
2023-01-25T20:48:20.153Z,3.10
2023-01-25T20:51:09.953Z,2.85
2023-01-25T20:53:55.647Z,3.38
2023-01-25T20:56:41.284Z,2.92
2023-01-25T20:59:26.770Z,3.07
2023-01-25T21:02:12.123Z,3.22
2023-01-25T21:04:57.530Z,2.58
2023-01-25T21:07:43.026Z,2.33
2023-01-25T21:10:28.295Z,2.63
2023-01-25T21:13:13.520Z,2.90
2023-01-25T21:16:13.215Z,3.60
2023-01-25T21:19:03.741Z,3.00
2023-01-25T21:21:49.182Z,2.88
2023-01-25T21:24:34.584Z,2.97
2023-01-25T21:27:19.843Z,2.97
2023-01-25T21:30:06.053Z,2.67
2023-01-25T21:32:52.008Z,3.17
2023-01-25T21:35:37.786Z,2.75
2023-01-25T21:38:25.383Z,2.22
2023-01-25T21:41:15.023Z,2.70
2023-01-25T21:44:39.693Z,2.70
2023-01-25T21:47:30.357Z,2.58
2023-01-25T21:50:37.963Z,2.80
2023-01-25T21:53:25.709Z,2.72
2023-01-25T21:56:10.882Z,2.80
2023-01-25T21:58:56.248Z,2.53
2023-01-25T22:01:43.126Z,2.90
2023-01-25T22:04:28.807Z,2.92
2023-01-25T22:07:14.169Z,2.90
2023-01-25T22:09:59.194Z,2.60
2023-01-25T22:12:45.628Z,2.70
2023-01-25T22:15:31.298Z,3.13
2023-01-25T22:18:16.555Z,2.60
2023-01-25T22:21:05.917Z,3.03
2023-01-25T22:23:51.972Z,3.20
2023-01-25T22:26:49.316Z,2.67
2023-01-25T22:29:35.010Z,2.67
2023-01-25T22:32:20.266Z,2.90
2023-01-25T22:35:06.400Z,2.80
2023-01-25T22:37:51.596Z,2.70
2023-01-25T22:40:36.758Z,2.50
2023-01-25T22:43:22.081Z,2.92
2023-01-25T22:46:10.823Z,2.70
2023-01-25T22:48:58.010Z,3.15
2023-01-25T22:51:43.232Z,2.60
2023-01-25T22:54:29.038Z,2.88
2023-01-25T22:57:14.925Z,2.95
2023-01-25T22:59:43.203Z,2.70
2023-01-25T23:02:29.116Z,2.80
2023-01-25T23:05:15.599Z,3.23
2023-01-25T23:08:01.399Z,2.78
2023-01-25T23:10:47.437Z,2.72
2023-01-25T23:13:33.378Z,3.00
2023-01-25T23:16:18.966Z,2.63
2023-01-25T23:24:01.907Z,2.70
2023-01-25T23:26:47.514Z,2.80
2023-01-25T23:29:33.323Z,2.60
2023-01-25T23:32:19.017Z,2.80
2023-01-25T23:35:05.118Z,2.40
2023-01-25T23:37:50.210Z,2.45
2023-01-25T23:40:35.520Z,2.40
2023-01-25T23:43:21.491Z,2.53
